Terminal Aerodrome Forecast
Issued by NWS State College, PA

Home | Current Version | Previous Version | Text Only | Print | Product List | Glossary On
Versions: 1 2 3 4 5 6 7 8 9 10 11 12 13 14 15 16 17 18 19 20 21 22 23 24 25 26 27
000
FTUS41 KCTP 231817 AAA
TAFMDT
TAF AMD
KMDT 231817Z 2318/2418 13007G13KT P6SM FEW019 BKN025 BKN030
     FM232100 14011KT P6SM OVC050
     FM240300 14016KT P6SM VCSH OVC025 WS020/17040KT
     FM240900 21008KT 4SM -RA VCTS OVC004CB
     FM241200 26004KT 2SM BR OVC007
     FM241600 22004KT P6SM OVC035=

USA.gov is the U.S. government's official web portal to all federal, state and local government web resources and services.